Latest Weather Observations for Bunbury

IDW60801

Issued at 3:35 pm WST Saturday 20 September 2014 (issued every 30 minutes, with the page automatically refreshed every 10 minutes)

About weather observations | Map of weather stations | Latest weather observations for WA | Other Formats
Station Details ID: 009965 Name: BUNBURY Lat: -33.36 Lon: 115.64 Height: 5.2 m
Data from the previous 72 hours. | See also: Recent months at Bunbury
Date/Time
WST
Temp
°C
App
Temp
°C
Dew
Point
Rel
Hum
%
Delta-T
°C
Wind Press
QNH
hPa
Press
MSL
hPa
Rain
since 9 am
mm
Dir
 
Spd
km/h
Gust
km/h
Spd
kts
Gust
kts
20/03:30pm 29.3 24.4 9.9 30 10.9 N 26 37 14 20 1008.2 1008.2 0.0
20/03:00pm 29.4 25.8 11.9 34 10.2 N 22 32 12 17 1008.5 1008.5 0.0
20/02:30pm 29.6 25.9 11.6 33 10.4 N 22 35 12 19 1008.8 1008.8 0.0
20/02:00pm 29.7 26.2 10.8 31 10.8 N 20 33 11 18 1009.2 1009.2 0.0
20/01:30pm 30.1 26.9 11.1 31 10.9 N 19 32 10 17 1009.4 1009.4 0.0
20/01:00pm 29.6 26.3 11.6 33 10.4 NNE 20 32 11 17 1009.9 1009.9 0.0
20/12:30pm 28.8 25.8 12.7 37 9.5 N 20 30 11 16 1010.4 1010.4 0.0
20/12:00pm 27.9 25.1 12.7 39 8.9 N 19 28 10 15 1011.2 1011.2 0.0
20/11:30am 26.6 23.7 13.0 43 7.9 N 20 32 11 17 1011.8 1011.8 0.0
20/11:00am 26.2 23.0 11.9 41 8.2 NNE 20 33 11 18 1012.3 1012.3 0.0
20/10:30am 25.4 22.6 13.3 47 7.1 NNE 20 30 11 16 1012.7 1012.7 0.0
20/10:00am 24.1 21.3 12.7 49 6.6 NE 19 30 10 16 1013.2 1013.2 0.0
20/09:30am 23.4 20.5 12.4 50 6.3 NE 19 30 10 16 1013.5 1013.5 0.0
20/09:00am 22.2 19.2 11.9 52 5.8 NE 19 33 10 18 1013.8 1013.8 0.0
20/08:30am 20.8 18.7 12.5 59 4.7 ENE 15 24 8 13 1014.3 1014.2 0.0
20/08:00am 19.5 18.1 12.3 63 4.0 ENE 11 22 6 12 1014.6 1014.5 0.0
20/07:30am 17.8 15.9 11.8 68 3.3 ENE 13 17 7 9 1014.9 1014.8 0.0
20/07:00am 16.4 14.1 11.6 73 2.6 ENE 15 20 8 11 1015.1 1015.0 0.0
20/06:30am 15.4 12.6 11.4 77 2.1 ENE 17 26 9 14 1015.2 1015.1 0.0
20/06:00am 14.7 12.2 12.4 86 1.3 ENE 17 24 9 13 1015.4 1015.3 0.0
20/05:30am 13.4 12.1 12.5 94 0.5 E 11 17 6 9 1015.6 1015.5 0.0
20/05:00am 14.0 12.6 13.4 96 0.3 ENE 13 20 7 11 1015.8 1015.7 0.0
20/04:30am 13.9 12.5 13.3 96 0.3 E 13 20 7 11 1015.9 1015.8 0.0
20/04:00am 12.5 11.4 11.9 96 0.3 ENE 9 13 5 7 1016.4 1016.3 0.0
20/03:30am 11.1 10.5 10.5 96 0.3 E 4 7 2 4 1016.6 1016.5 0.0
20/03:00am 10.4 9.3 9.8 96 0.3 E 6 7 3 4 1017.2 1017.1 0.0
20/02:30am 10.0 9.9 9.4 96 0.3 CALM 0 0 0 0 1017.5 1017.4 0.0
20/02:00am 10.4 10.4 9.8 96 0.3 CALM 0 2 0 1 1017.8 1017.7 0.0
20/01:30am 11.1 10.5 10.5 96 0.3 ESE 4 6 2 3 1017.9 1017.8 0.0
20/01:00am 11.0 10.0 10.4 96 0.3 ESE 6 9 3 5 1018.3 1018.2 0.0
20/12:30am 11.6 11.9 11.0 96 0.3 CALM 0 4 0 2 1018.4 1018.3 0.0
20/12:00am 12.1 11.8 11.3 95 0.4 S 4 6 2 3 1018.7 1018.6 0.0
 
Date/Time
WST
Temp
°C
App
Temp
°C
Dew
Point
Rel
Hum
%
Delta-T
°C
Wind Press
QNH
hPa
Press
MSL
hPa
Rain
since 9 am
mm
Dir
 
Spd
km/h
Gust
km/h
Spd
kts
Gust
kts
19/11:30pm 12.2 12.3 11.4 95 0.4 S 2 4 1 2 1019.3 1019.2 0.0
19/11:00pm 11.2 11.4 10.4 95 0.4 SW 0 0 0 0 1019.7 1019.6 0.0
19/10:30pm 12.6 13.2 11.8 95 0.4 CALM 0 0 0 0 1020.3 1020.2 0.0
19/10:00pm 13.2 14.0 12.4 95 0.4 CALM 0 0 0 0 1020.5 1020.4 0.0
19/09:30pm 12.8 - - - - S 2 4 1 2 1020.9 1020.8 0.0
19/09:00pm 13.6 - - - - CALM 0 0 0 0 1021.0 1021.0 0.0
19/08:30pm 12.8 13.0 11.7 93 0.6 ESE 2 4 1 2 1021.0 1021.0 0.0
19/08:00pm 14.4 15.4 13.3 93 0.6 CALM 0 0 0 0 1021.0 1021.0 0.0
19/07:30pm 14.7 15.0 13.4 92 0.7 S 4 4 2 2 1020.9 1020.8 0.0
19/07:00pm 15.4 16.2 13.8 90 0.9 SSE 2 4 1 2 1020.9 1020.8 0.0
19/06:30pm 16.7 17.5 14.7 88 1.1 SW 4 6 2 3 1020.7 1020.6 0.0
19/06:00pm 17.6 17.7 14.5 82 1.8 WSW 7 9 4 5 1020.6 1020.5 0.0
19/05:30pm 18.8 18.3 13.9 73 2.8 WSW 9 11 5 6 1020.5 1020.4 0.0
19/05:00pm 19.5 18.5 13.4 68 3.5 WSW 11 13 6 7 1020.4 1020.3 0.0
19/04:30pm 20.2 19.7 13.9 67 3.6 WSW 9 13 5 7 1020.3 1020.2 0.0
19/04:00pm 20.8 20.1 14.2 66 3.8 WSW 11 15 6 8 1020.4 1020.3 0.0
19/03:30pm 21.3 20.7 14.7 66 3.9 W 11 17 6 9 1020.4 1020.3 0.0
19/03:00pm 21.2 21.0 14.8 67 3.8 W 9 15 5 8 1020.5 1020.4 0.0
19/02:30pm 21.1 20.3 15.2 69 3.5 WNW 13 19 7 10 1020.7 1020.6 0.0
19/02:00pm 21.1 20.3 15.2 69 3.5 WNW 13 19 7 10 1020.9 1020.8 0.0
19/01:30pm 21.2 - - - - WNW 11 15 6 8 1021.0 1021.0 0.0
19/01:00pm 21.0 20.3 15.3 70 3.4 NW 13 19 7 10 1021.4 1021.4 0.0
19/12:30pm 22.2 22.0 14.6 62 4.5 W 9 11 5 6 1021.6 1021.6 0.0
19/12:00pm 22.0 22.0 15.1 65 4.1 WNW 9 13 5 7 1021.9 1021.9 0.0
19/11:30am 22.0 21.8 14.6 63 4.4 W 9 13 5 7 1021.8 1021.8 0.0
19/11:00am 21.8 22.4 15.4 67 3.8 WNW 6 11 3 6 1022.2 1022.2 0.0
19/10:30am 21.7 23.0 14.1 62 4.4 CALM 0 4 0 2 1022.4 1022.4 0.0
19/10:00am 20.1 20.6 14.0 68 3.5 W 4 9 2 5 1022.7 1022.7 0.0
19/09:30am 20.9 21.4 14.1 65 3.9 ESE 4 7 2 4 1022.9 1022.9 0.0
19/09:00am 19.7 20.2 13.9 69 3.3 SE 4 6 2 3 1023.0 1023.0 0.0
19/08:30am 18.8 20.1 14.1 74 2.7 CALM 0 0 0 0 1022.8 1022.8 0.0
19/08:00am 17.6 18.1 14.1 80 2.0 NE 4 7 2 4 1022.5 1022.5 0.0
19/07:30am 16.2 17.2 14.4 89 1.0 ESE 2 7 1 4 1022.2 1022.2 0.0
19/07:00am 15.3 16.7 14.3 94 0.6 CALM 0 0 0 0 1021.7 1021.7 0.0
19/06:30am 14.1 15.1 13.1 94 0.6 CALM 0 4 0 2 1021.5 1021.5 0.0
19/06:00am 14.1 15.1 13.1 94 0.5 CALM 0 0 0 0 1021.4 1021.4 0.0
19/05:30am 14.0 15.0 13.1 94 0.5 CALM 0 0 0 0 1021.2 1021.2 0.0
19/05:00am 14.0 15.0 13.1 94 0.5 CALM 0 0 0 0 1020.7 1020.6 0.0
19/04:30am 13.9 14.8 13.0 94 0.5 CALM 0 2 0 1 1020.4 1020.3 0.0
19/04:00am 13.7 14.2 12.8 94 0.5 ENE 2 4 1 2 1020.2 1020.1 0.0
19/03:30am 13.7 13.9 12.9 95 0.4 E 4 6 2 3 1020.3 1020.2 0.0
19/03:00am 13.4 13.8 12.6 95 0.4 NNE 2 4 1 2 1020.5 1020.4 0.0
19/02:30am 13.1 13.8 12.3 95 0.4 CALM 0 0 0 0 1020.7 1020.6 0.0
19/02:00am 12.1 12.5 11.2 94 0.5 CALM 0 0 0 0 1020.7 1020.6 0.0
19/01:30am 11.5 11.7 10.6 94 0.5 CALM 0 0 0 0 1020.8 1020.7 0.0
19/01:00am 11.4 11.5 10.3 93 0.6 CALM 0 0 0 0 1020.6 1020.5 0.0
19/12:30am 12.6 13.1 11.5 93 0.6 CALM 0 0 0 0 1020.6 1020.5 0.0
19/12:00am 13.2 13.9 12.1 93 0.6 CALM 0 0 0 0 1020.8 1020.7 0.0
 
Date/Time
WST
Temp
°C
App
Temp
°C
Dew
Point
Rel
Hum
%
Delta-T
°C
Wind Press
QNH
hPa
Press
MSL
hPa
Rain
since 9 am
mm
Dir
 
Spd
km/h
Gust
km/h
Spd
kts
Gust
kts
18/11:30pm 13.5 14.3 12.6 94 0.5 CALM 0 0 0 0 1020.8 1020.7 0.0
18/11:00pm 13.5 14.3 12.6 94 0.5 CALM 0 0 0 0 1021.1 1021.1 0.0
18/10:30pm 11.9 12.2 10.8 93 0.6 CALM 0 0 0 0 1021.0 1021.0 0.0
18/10:00pm 12.7 13.1 11.4 92 0.7 CALM 0 0 0 0 1021.0 1021.0 0.0
18/09:30pm 12.4 11.6 11.0 91 0.7 E 6 6 3 3 1020.9 1020.8 0.0
18/09:00pm 13.1 13.4 11.0 87 1.1 CALM 0 0 0 0 1020.7 1020.6 0.0
18/08:30pm 15.4 14.9 12.7 84 1.5 SSW 7 11 4 6 1020.7 1020.6 0.0
18/08:00pm 16.0 14.8 12.9 82 1.7 SW 11 17 6 9 1020.4 1020.3 0.0
18/07:30pm 16.1 15.0 13.2 83 1.6 WSW 11 19 6 10 1019.7 1019.6 0.0
18/07:00pm 16.2 15.1 13.1 82 1.7 WSW 11 19 6 10 1019.0 1018.9 0.0
18/06:30pm 16.6 15.2 13.5 82 1.7 WSW 13 20 7 11 1018.8 1018.7 0.0
18/06:00pm 17.0 15.4 12.7 76 2.4 WSW 13 19 7 10 1018.5 1018.4 0.0
18/05:30pm 18.0 15.0 12.5 70 3.1 WSW 20 30 11 16 1018.1 1018.0 0.0
18/05:00pm 18.9 16.3 13.3 70 3.2 WSW 19 28 10 15 1017.9 1017.8 0.0
18/04:30pm 19.6 17.7 14.2 71 3.1 WSW 17 28 9 15 1017.4 1017.3 0.0
18/04:00pm 20.0 17.6 14.4 70 3.2 W 20 30 11 16 1017.3 1017.2 0.0
18/03:30pm 20.4 17.7 14.7 70 3.3 W 22 33 12 18 1017.0 1016.9 0.0
18/03:00pm 20.6 18.1 15.2 71 3.2 W 22 32 12 17 1016.9 1016.8 0.0
18/02:30pm 21.1 19.6 15.4 70 3.4 W 17 28 9 15 1016.9 1016.8 0.0
18/02:00pm 21.0 19.3 15.8 72 3.1 W 19 26 10 14 1017.1 1017.0 0.0
18/01:30pm 21.0 19.5 15.3 70 3.4 W 17 24 9 13 1017.2 1017.1 0.0
18/01:00pm 21.7 20.2 14.1 62 4.4 WSW 15 22 8 12 1017.1 1017.0 0.0
18/12:30pm 21.3 19.9 14.5 65 4.0 WSW 15 20 8 11 1017.1 1017.0 0.0
18/12:00pm 21.2 20.5 15.3 69 3.5 WSW 13 19 7 10 1017.4 1017.3 0.0
18/11:30am 21.5 20.9 15.6 69 3.5 WSW 13 17 7 9 1017.8 1017.7 0.0
18/11:00am 21.2 21.2 15.3 69 3.5 WSW 9 15 5 8 1017.8 1017.7 0.0
18/10:30am 20.1 19.6 14.9 72 3.0 WSW 11 15 6 8 1018.1 1018.0 0.0
18/10:00am 20.2 20.4 14.1 68 3.5 SSW 6 11 3 6 1018.1 1018.0 0.0
18/09:30am 18.9 19.0 14.0 73 2.8 SSW 6 9 3 5 1018.2 1018.1 0.0
18/09:00am 17.2 16.8 12.9 76 2.4 S 7 11 4 6 1018.3 1018.2 0.0
18/08:30am 15.9 15.4 13.9 88 1.1 SSE 9 13 5 7 1018.3 1018.2 0.0
18/08:00am 13.9 12.8 13.1 95 0.4 S 11 15 6 8 1018.3 1018.2 0.0
18/07:30am 13.0 12.6 12.4 96 0.3 S 6 11 3 6 1017.9 1017.8 0.0
18/07:00am 11.4 10.5 10.8 96 0.3 S 6 9 3 5 1017.6 1017.5 0.0
18/06:30am 9.8 8.3 9.0 95 0.4 SSW 7 9 4 5 1017.4 1017.3 0.0
18/06:00am 9.8 8.3 9.0 95 0.4 S 7 9 4 5 1017.3 1017.2 0.0
18/05:30am 9.9 8.6 9.1 95 0.4 SSW 6 7 3 4 1017.2 1017.1 0.0
18/05:00am 10.5 9.1 9.7 95 0.4 SSW 7 9 4 5 1016.9 1016.8 0.0
18/04:30am 10.9 9.6 10.1 95 0.4 S 7 9 4 5 1016.9 1016.8 0.0
18/04:00am 11.0 10.0 10.2 95 0.4 S 6 7 3 4 1017.0 1016.9 0.0
18/03:30am 11.4 10.3 10.6 95 0.4 S 7 9 4 5 1016.8 1016.7 0.0
18/03:00am 11.6 10.5 10.7 94 0.5 S 7 9 4 5 1016.9 1016.8 0.0
18/02:30am 11.7 10.8 10.8 94 0.5 S 6 9 3 5 1017.1 1017.0 0.0
18/02:00am 11.7 10.8 10.8 94 0.5 S 6 7 3 4 1017.2 1017.1 0.0
18/01:30am 12.0 11.2 11.1 94 0.5 SSW 6 7 3 4 1017.3 1017.2 0.0
18/01:00am 11.9 11.0 10.8 93 0.6 SSW 6 7 3 4 1017.4 1017.3 0.0
18/12:30am 11.7 11.1 10.4 92 0.7 S 4 7 2 4 1017.3 1017.2 0.0
18/12:00am 12.6 12.2 11.2 91 0.7 S 4 6 2 3 1017.4 1017.3 0.0
 
Date/Time
WST
Temp
°C
App
Temp
°C
Dew
Point
Rel
Hum
%
Delta-T
°C
Wind Press
QNH
hPa
Press
MSL
hPa
Rain
since 9 am
mm
Dir
 
Spd
km/h
Gust
km/h
Spd
kts
Gust
kts
17/11:30pm 13.0 12.7 11.6 91 0.7 S 4 7 2 4 1017.5 1017.4 0.0
17/11:00pm 13.2 12.4 11.6 90 0.8 SSW 7 9 4 5 1017.5 1017.4 0.0
17/10:30pm 13.7 13.0 11.9 89 1.0 SSW 7 9 4 5 1017.6 1017.5 0.0
17/10:00pm 13.9 12.8 11.8 87 1.1 S 9 11 5 6 1017.5 1017.4 0.0
17/09:30pm 15.1 14.0 12.1 82 1.6 S 9 13 5 7 1017.6 1017.5 0.0
17/09:00pm 15.6 14.2 12.2 80 1.9 S 11 15 6 8 1017.6 1017.5 0.0
17/08:30pm 16.0 15.0 12.4 79 2.0 S 9 15 5 8 1017.3 1017.2 0.0
17/08:00pm 16.1 14.7 12.3 78 2.1 S 11 15 6 8 1017.0 1016.9 0.0
17/07:30pm 16.5 15.4 12.1 75 2.4 S 9 11 5 6 1016.6 1016.5 0.0
17/07:00pm 16.8 15.9 12.7 77 2.3 S 9 13 5 7 1016.0 1015.9 0.0
17/06:30pm 17.0 17.2 12.9 77 2.3 SSW 4 7 2 4 1015.6 1015.5 0.0
17/06:00pm 18.4 18.2 13.1 71 3.0 SW 6 7 3 4 1015.3 1015.2 0.0
17/05:30pm 19.7 19.1 12.2 62 4.2 SW 7 11 4 6 1015.0 1014.9 0.0
17/05:00pm 20.3 19.0 11.2 56 5.0 WSW 9 15 5 8 1015.1 1015.0 0.0
17/04:30pm 21.2 19.7 11.8 55 5.2 WSW 11 20 6 11 1015.0 1014.9 0.0
17/04:00pm 21.6 20.0 12.7 57 5.1 WSW 13 19 7 10 1014.7 1014.6 0.0

Other Formats:

Comma delimited format used in spreadsheet applications
http://www.bom.gov.au/fwo/IDW60801/IDW60801.94604.axf

JavaScript Object Notation format (JSON) in row-major order
http://www.bom.gov.au/fwo/IDW60801/IDW60801.94604.json